Time;durP1;ratioP1;P1;durP2;ratioP2;P2;SDS_P1;SDS_P2;PMS_P1;PMS_P2;Temp;Humidity;BMP_temperature;BMP_pressure;BME280_temperature;BME280_humidity;BME280_pressure;Samples;Min_cycle;Max_cycle;Signal;HPM_P1;HPM_P2
2021/03/04 00:02:16;;;;;;;147.97;49.23;;;;;;;;;;5074504;28;20060;-58
2021/03/04 00:04:41;;;;;;;146.20;50.93;;;;;;;;;;5072431;28;20147;-58
2021/03/04 00:07:06;;;;;;;137.40;48.97;;;;;;;;;;5072836;28;20020;-57
2021/03/04 00:09:32;;;;;;;140.80;47.23;;;;;;;;;;5073856;28;20043;-57
2021/03/04 00:11:57;;;;;;;134.27;46.53;;;;;;;;;;5073579;28;20472;-58
2021/03/04 00:14:22;;;;;;;143.03;47.57;;;;;;;;;;5074077;28;20044;-59
2021/03/04 00:16:48;;;;;;;134.50;47.30;;;;;;;;;;5071997;28;20025;-58
2021/03/04 00:19:13;;;;;;;138.97;46.87;;;;;;;;;;5073977;28;20107;-57
2021/03/04 00:21:38;;;;;;;125.73;42.90;;;;;;;;;;5073618;28;20035;-59
2021/03/04 00:24:04;;;;;;;119.50;42.43;;;;;;;;;;5073291;28;20546;-59
2021/03/04 00:26:29;;;;;;;124.83;42.73;;;;;;;;;;5073965;28;20020;-59
2021/03/04 00:28:55;;;;;;;119.23;43.47;;;;;;;;;;5073005;28;20094;-56
2021/03/04 00:31:20;;;;;;;118.97;44.87;;;;;;;;;;5073671;28;20073;-57
2021/03/04 00:33:45;;;;;;;130.63;43.20;;;;;;;;;;5061634;28;20048;-58
2021/03/04 00:36:11;;;;;;;111.83;40.03;;;;;;;;;;5052283;28;20083;-58
2021/03/04 00:38:36;;;;;;;126.33;45.73;;;;;;;;;;5053572;28;20056;-57
2021/03/04 00:41:01;;;;;;;114.57;42.50;;;;;;;;;;5051560;28;20112;-57
2021/03/04 00:43:27;;;;;;;125.90;43.93;;;;;;;;;;5053467;28;20126;-58
2021/03/04 00:45:52;;;;;;;132.23;45.47;;;;;;;;;;5052771;28;20441;-57
2021/03/04 00:48:18;;;;;;;120.90;42.53;;;;;;;;;;5035349;28;20033;-57
2021/03/04 00:50:43;;;;;;;143.13;46.07;;;;;;;;;;5053521;28;20039;-57
2021/03/04 00:53:08;;;;;;;137.33;46.37;;;;;;;;;;5052587;28;20033;-59
2021/03/04 00:55:34;;;;;;;138.07;46.83;;;;;;;;;;5052893;28;20504;-58
2021/03/04 00:57:59;;;;;;;142.67;45.07;;;;;;;;;;5052212;28;20025;-57
2021/03/04 01:00:25;;;;;;;130.43;44.50;;;;;;;;;;5035153;28;20441;-58
2021/03/04 01:02:50;;;;;;;136.98;44.88;;;;;;;;;;5051998;28;20021;-58
2021/03/04 01:05:16;;;;;;;130.07;43.17;;;;;;;;;;5053273;28;20476;-58
2021/03/04 01:07:41;;;;;;;137.13;44.87;;;;;;;;;;5052865;28;20037;-59
2021/03/04 01:10:08;;;;;;;142.00;47.77;;;;;;;;;;5034468;28;20477;-59
2021/03/04 01:12:33;;;;;;;135.00;44.30;;;;;;;;;;5052611;28;20044;-58
2021/03/04 01:14:58;;;;;;;129.87;45.33;;;;;;;;;;5052364;28;20045;-57
2021/03/04 01:17:24;;;;;;;139.37;45.67;;;;;;;;;;5052632;28;20341;-58
2021/03/04 01:19:49;;;;;;;140.73;45.80;;;;;;;;;;5071564;28;20036;-57
2021/03/04 01:22:14;;;;;;;138.30;43.43;;;;;;;;;;5075084;28;20032;-58
2021/03/04 01:24:40;;;;;;;130.17;43.33;;;;;;;;;;5057200;28;20503;-57
2021/03/04 01:27:05;;;;;;;145.47;45.57;;;;;;;;;;5054039;28;20488;-57
2021/03/04 01:29:30;;;;;;;125.73;40.13;;;;;;;;;;5072723;28;20042;-57
2021/03/04 01:31:56;;;;;;;119.67;43.13;;;;;;;;;;5072170;28;20032;-58
2021/03/04 01:34:21;;;;;;;117.80;40.97;;;;;;;;;;5071785;28;20458;-57
2021/03/04 01:36:46;;;;;;;121.40;42.93;;;;;;;;;;5054446;28;20037;-57
2021/03/04 01:39:12;;;;;;;118.67;41.70;;;;;;;;;;5071623;28;20032;-58
2021/03/04 01:41:37;;;;;;;109.97;41.23;;;;;;;;;;5072383;28;20043;-58
2021/03/04 01:44:03;;;;;;;115.93;40.67;;;;;;;;;;5071653;28;20068;-58
2021/03/04 01:46:28;;;;;;;96.63;31.47;;;;;;;;;;5071997;28;20036;-57
2021/03/04 01:48:54;;;;;;;111.17;39.53;;;;;;;;;;5071700;28;20032;-57
2021/03/04 01:51:19;;;;;;;114.43;39.93;;;;;;;;;;5072179;28;20698;-58
2021/03/04 01:53:44;;;;;;;112.87;37.60;;;;;;;;;;5072222;28;20025;-59
2021/03/04 01:56:10;;;;;;;108.93;38.60;;;;;;;;;;5053539;28;20365;-58
2021/03/04 01:58:35;;;;;;;89.60;31.63;;;;;;;;;;5072118;28;20447;-58
2021/03/04 02:01:01;;;;;;;110.30;38.07;;;;;;;;;;5071159;28;20032;-56
2021/03/04 02:03:27;;;;;;;114.72;38.47;;;;;;;;;;5071912;28;20047;-57
2021/03/04 02:05:52;;;;;;;97.73;33.77;;;;;;;;;;5037193;28;20112;-58
2021/03/04 02:08:21;;;;;;;95.20;34.93;;;;;;;;;;5071669;28;20265;-57
2021/03/04 02:10:48;;;;;;;87.25;33.45;;;;;;;;;;5071809;28;20032;-56
2021/03/04 02:13:23;;;;;;;93.32;35.90;;;;;;;;;;5056766;28;20585;-57
2021/03/04 02:15:54;;;;;;;92.93;34.15;;;;;;;;;;5052140;28;20045;-59
2021/03/04 02:18:21;;;;;;;99.57;35.13;;;;;;;;;;5049720;28;20083;-57
2021/03/04 02:21:06;;;;;;;94.38;34.88;;;;;;;;;;5033342;28;20037;-58
2021/03/04 02:23:36;;;;;;;93.63;33.70;;;;;;;;;;5054388;28;20052;-58
2021/03/04 02:26:14;;;;;;;101.88;35.78;;;;;;;;;;5053226;28;20075;-58
2021/03/04 02:28:39;;;;;;;97.82;34.65;;;;;;;;;;5046293;28;20056;-57
2021/03/04 02:31:08;;;;;;;95.10;33.70;;;;;;;;;;5050902;28;20441;-58
2021/03/04 02:33:33;;;;;;;108.95;36.75;;;;;;;;;;5034958;28;20199;-57
2021/03/04 02:35:59;;;;;;;108.65;34.10;;;;;;;;;;5069419;28;20115;-59
2021/03/04 02:38:25;;;;;;;113.38;37.22;;;;;;;;;;5070368;28;20127;-58
2021/03/04 02:40:51;;;;;;;105.70;36.75;;;;;;;;;;5037015;28;20443;-57
2021/03/04 02:43:18;;;;;;;117.88;38.20;;;;;;;;;;5070657;28;20786;-57
2021/03/04 02:45:44;;;;;;;115.25;36.38;;;;;;;;;;5070038;28;20469;-58
2021/03/04 02:48:13;;;;;;;120.32;35.83;;;;;;;;;;5070685;28;20079;-58
2021/03/04 02:50:40;;;;;;;106.50;35.70;;;;;;;;;;5068056;28;20115;-58
2021/03/04 02:53:05;;;;;;;110.87;36.87;;;;;;;;;;5050558;28;20111;-57
2021/03/04 02:55:31;;;;;;;115.47;38.00;;;;;;;;;;5051489;28;20753;-58
2021/03/04 02:57:57;;;;;;;101.05;34.85;;;;;;;;;;5051463;28;20039;-59
2021/03/04 03:00:24;;;;;;;106.72;34.85;;;;;;;;;;5049705;28;20098;-58
2021/03/04 03:02:49;;;;;;;;;;;;;;;;;;5052633;28;20017;-57
2021/03/04 03:05:15;;;;;;;92.10;31.17;;;;;;;;;;5070233;28;20245;-59
2021/03/04 03:07:42;;;;;;;102.68;34.25;;;;;;;;;;5071328;28;20067;-56
2021/03/04 03:10:08;;;;;;;96.50;33.63;;;;;;;;;;5069019;28;20469;-58
2021/03/04 03:12:36;;;;;;;90.60;31.15;;;;;;;;;;5070025;28;20040;-57
2021/03/04 03:15:04;;;;;;;93.68;32.90;;;;;;;;;;5070661;28;20134;-57
2021/03/04 03:17:29;;;;;;;97.80;31.90;;;;;;;;;;5070991;28;20425;-57
2021/03/04 03:19:55;;;;;;;94.57;32.63;;;;;;;;;;5071078;28;20052;-58
2021/03/04 03:22:20;;;;;;;89.47;31.83;;;;;;;;;;5039917;28;20246;-59
2021/03/04 03:24:46;;;;;;;94.47;32.93;;;;;;;;;;5074925;28;20044;-60
2021/03/04 03:27:12;;;;;;;91.15;31.08;;;;;;;;;;5074185;28;20012;-59
2021/03/04 03:29:37;;;;;;;87.37;29.10;;;;;;;;;;5074483;28;20052;-59
2021/03/04 03:32:03;;;;;;;87.37;28.77;;;;;;;;;;5074643;28;20479;-56
2021/03/04 03:34:28;;;;;;;75.68;28.10;;;;;;;;;;5074826;28;20048;-58
2021/03/04 03:36:54;;;;;;;92.57;31.03;;;;;;;;;;5069018;28;20037;-58
2021/03/04 03:39:20;;;;;;;76.90;30.58;;;;;;;;;;5069584;28;20135;-58
2021/03/04 03:41:46;;;;;;;85.07;30.88;;;;;;;;;;5074415;28;20111;-56
2021/03/04 03:44:12;;;;;;;90.17;29.27;;;;;;;;;;5073663;28;20043;-58
2021/03/04 03:46:38;;;;;;;83.93;29.83;;;;;;;;;;5056592;28;20400;-57
2021/03/04 03:49:04;;;;;;;79.93;28.58;;;;;;;;;;5074153;28;20413;-58
2021/03/04 03:51:30;;;;;;;79.38;27.77;;;;;;;;;;5074638;28;20039;-58
2021/03/04 03:53:56;;;;;;;79.13;27.45;;;;;;;;;;5074351;28;20044;-58
2021/03/04 03:56:22;;;;;;;81.47;31.08;;;;;;;;;;5073458;28;20060;-58
2021/03/04 03:58:48;;;;;;;80.07;31.07;;;;;;;;;;5074639;28;20114;-58
2021/03/04 04:01:13;;;;;;;77.28;29.98;;;;;;;;;;5073488;28;20186;-58
2021/03/04 04:03:39;;;;;;;87.00;30.77;;;;;;;;;;5055938;28;20036;-57
2021/03/04 04:06:04;;;;;;;86.67;30.73;;;;;;;;;;5073923;28;20021;-58
2021/03/04 04:08:30;;;;;;;93.37;33.03;;;;;;;;;;5073431;28;20293;-58
2021/03/04 04:10:55;;;;;;;93.82;33.15;;;;;;;;;;5056081;28;20388;-58
2021/03/04 04:13:21;;;;;;;98.73;32.90;;;;;;;;;;5055678;28;20037;-58
2021/03/04 04:15:47;;;;;;;98.10;31.63;;;;;;;;;;5074078;28;20025;-59
2021/03/04 04:18:12;;;;;;;86.63;29.33;;;;;;;;;;5055155;28;20140;-58
2021/03/04 04:20:38;;;;;;;93.87;33.27;;;;;;;;;;5056375;28;20056;-59
2021/03/04 04:23:05;;;;;;;93.18;31.90;;;;;;;;;;5073989;28;20020;-59
2021/03/04 04:25:31;;;;;;;89.90;29.90;;;;;;;;;;5073712;28;20097;-59
2021/03/04 04:27:56;;;;;;;86.23;29.37;;;;;;;;;;5074020;28;20040;-62
2021/03/04 04:30:25;;;;;;;83.63;31.30;;;;;;;;;;5073710;28;20473;-57
2021/03/04 04:32:51;;;;;;;77.25;27.92;;;;;;;;;;5055752;28;20036;-58
2021/03/04 04:35:17;;;;;;;76.03;27.90;;;;;;;;;;5073963;28;20438;-59
2021/03/04 04:37:42;;;;;;;78.72;28.42;;;;;;;;;;5074441;28;20025;-57
2021/03/04 04:40:08;;;;;;;67.85;25.23;;;;;;;;;;5074537;28;20392;-56
2021/03/04 04:42:34;;;;;;;78.68;27.90;;;;;;;;;;5049152;28;20481;-59
2021/03/04 04:45:00;;;;;;;77.60;27.75;;;;;;;;;;5053753;28;20426;-60
2021/03/04 04:47:25;;;;;;;73.65;27.52;;;;;;;;;;5052859;28;20037;-60
2021/03/04 04:49:51;;;;;;;74.27;27.17;;;;;;;;;;5053592;28;20033;-59
2021/03/04 04:52:16;;;;;;;65.90;25.83;;;;;;;;;;5052828;28;20029;-57
2021/03/04 04:54:42;;;;;;;75.67;26.47;;;;;;;;;;5053081;28;20108;-59
2021/03/04 04:57:07;;;;;;;69.30;25.70;;;;;;;;;;5035209;28;20365;-59
2021/03/04 04:59:33;;;;;;;76.03;27.30;;;;;;;;;;5034722;28;20460;-58
2021/03/04 05:01:58;;;;;;;76.80;27.00;;;;;;;;;;5052832;28;20025;-56
2021/03/04 05:04:23;;;;;;;76.50;25.90;;;;;;;;;;5034334;28;20079;-59
2021/03/04 05:06:48;;;;;;;63.17;25.03;;;;;;;;;;5052833;28;20045;-59
2021/03/04 05:09:14;;;;;;;80.37;25.50;;;;;;;;;;5052509;28;20087;-57
2021/03/04 05:11:39;;;;;;;71.33;26.47;;;;;;;;;;5052977;28;20079;-58
2021/03/04 05:14:05;;;;;;;72.43;28.17;;;;;;;;;;5053056;28;20067;-57
2021/03/04 05:16:30;;;;;;;69.82;26.98;;;;;;;;;;5052219;28;20408;-59
2021/03/04 05:18:56;;;;;;;73.57;28.00;;;;;;;;;;5018418;28;20033;-58
2021/03/04 05:21:21;;;;;;;74.53;26.40;;;;;;;;;;5034490;28;20356;-58
2021/03/04 05:23:46;;;;;;;72.90;26.63;;;;;;;;;;5052768;28;20036;-59
2021/03/04 05:26:12;;;;;;;79.27;28.00;;;;;;;;;;5052401;28;20327;-58
2021/03/04 05:28:37;;;;;;;78.40;27.77;;;;;;;;;;5033991;28;20456;-59
2021/03/04 05:31:02;;;;;;;70.63;25.67;;;;;;;;;;5052860;28;20381;-59
2021/03/04 05:33:28;;;;;;;74.07;26.00;;;;;;;;;;5051449;28;20037;-58
2021/03/04 05:35:53;;;;;;;74.13;27.17;;;;;;;;;;5034764;28;20400;-59
2021/03/04 05:38:19;;;;;;;68.27;26.40;;;;;;;;;;5052077;28;20452;-59
2021/03/04 05:40:44;;;;;;;72.47;25.63;;;;;;;;;;5052251;28;20032;-59
2021/03/04 05:43:10;;;;;;;69.57;26.33;;;;;;;;;;5051775;28;20507;-59
2021/03/04 05:45:36;;;;;;;64.90;25.15;;;;;;;;;;5051087;28;20045;-58
2021/03/04 05:48:02;;;;;;;69.63;24.45;;;;;;;;;;5052030;28;20051;-59
2021/03/04 05:50:28;;;;;;;65.65;23.13;;;;;;;;;;5051651;28;20115;-59
2021/03/04 05:52:59;;;;;;;77.95;27.50;;;;;;;;;;5052150;28;20476;-59
2021/03/04 05:55:24;;;;;;;67.85;23.33;;;;;;;;;;5052052;28;20465;-58
2021/03/04 05:57:50;;;;;;;51.70;20.63;;;;;;;;;;5051990;28;20025;-58
2021/03/04 06:00:16;;;;;;;50.72;20.02;;;;;;;;;;5051801;28;20048;-58
2021/03/04 06:02:42;;;;;;;59.00;23.00;;;;;;;;;;5051544;28;20353;-58
2021/03/04 06:05:07;;;;;;;;;;;;;;;;;;5052158;28;20500;-57
2021/03/04 06:07:33;;;;;;;80.00;26.27;;;;;;;;;;5051358;28;19905;-58
2021/03/04 06:09:58;;;;;;;75.73;26.90;;;;;;;;;;5034339;28;20035;-58
2021/03/04 06:12:24;;;;;;;76.80;26.10;;;;;;;;;;5051575;28;20045;-58
2021/03/04 06:14:49;;;;;;;73.80;25.47;;;;;;;;;;5051885;28;20381;-58
2021/03/04 06:17:18;;;;;;;70.20;24.47;;;;;;;;;;5033840;28;20055;-58
2021/03/04 06:19:54;;;;;;;69.60;25.33;;;;;;;;;;5051447;28;20341;-58
2021/03/04 06:22:26;;;;;;;77.68;26.25;;;;;;;;;;5050985;28;20465;-57
2021/03/04 06:24:52;;;;;;;73.60;26.35;;;;;;;;;;5051486;28;20120;-58
2021/03/04 06:27:23;;;;;;;66.70;24.58;;;;;;;;;;5033390;28;20103;-58
2021/03/04 06:29:52;;;;;;;74.00;26.45;;;;;;;;;;5051150;28;20040;-58
2021/03/04 06:32:22;;;;;;;70.88;26.15;;;;;;;;;;5068688;28;20095;-57
2021/03/04 06:34:48;;;;;;;68.28;24.98;;;;;;;;;;5062854;28;20115;-59
2021/03/04 06:37:13;;;;;;;66.55;23.02;;;;;;;;;;5071262;28;20036;-58
2021/03/04 06:39:43;;;;;;;73.77;24.47;;;;;;;;;;5070679;28;20492;-58
2021/03/04 06:42:09;;;;;;;82.60;27.05;;;;;;;;;;5069915;28;20131;-59
2021/03/04 06:44:40;;;;;;;72.45;27.27;;;;;;;;;;5069596;28;20484;-58
2021/03/04 06:47:06;;;;;;;79.22;27.92;;;;;;;;;;5071329;28;20036;-59
2021/03/04 06:49:35;;;;;;;68.30;25.27;;;;;;;;;;5070122;28;20401;-58
2021/03/04 06:52:02;;;;;;;67.00;23.63;;;;;;;;;;5036220;28;20472;-58
2021/03/04 06:54:28;;;;;;;69.05;25.92;;;;;;;;;;5070631;28;20453;-58
2021/03/04 06:56:53;;;;;;;78.40;26.27;;;;;;;;;;5070969;28;20048;-58
2021/03/04 06:59:18;;;;;;;71.33;25.20;;;;;;;;;;5070693;28;20028;-58
2021/03/04 07:01:44;;;;;;;71.70;26.70;;;;;;;;;;5070309;28;20028;-59
2021/03/04 07:04:13;;;;;;;68.90;25.50;;;;;;;;;;5052097;28;20085;-58
2021/03/04 07:06:39;;;;;;;74.90;25.20;;;;;;;;;;5070154;28;20162;-59
2021/03/04 07:09:04;;;;;;;71.63;27.23;;;;;;;;;;5052638;28;20108;-59
2021/03/04 07:11:30;;;;;;;71.53;25.70;;;;;;;;;;5069867;28;20310;-59
2021/03/04 07:13:56;;;;;;;79.67;28.37;;;;;;;;;;5070160;28;20051;-59
2021/03/04 07:16:24;;;;;;;80.85;27.55;;;;;;;;;;5070480;28;20036;-59
2021/03/04 07:18:50;;;;;;;70.15;25.27;;;;;;;;;;5070924;28;20035;-58
2021/03/04 07:21:16;;;;;;;78.73;26.93;;;;;;;;;;5071009;28;20037;-58
2021/03/04 07:23:42;;;;;;;83.05;29.73;;;;;;;;;;5051977;28;20067;-59
2021/03/04 07:26:09;;;;;;;98.93;33.55;;;;;;;;;;5052872;28;20029;-58
2021/03/04 07:28:34;;;;;;;;;;;;;;;;;;5070707;28;20039;-58
2021/03/04 07:31:01;;;;;;;120.93;39.00;;;;;;;;;;5070931;28;19990;-58
2021/03/04 07:33:27;;;;;;;115.00;37.70;;;;;;;;;;5066685;28;20479;-58
2021/03/04 07:35:53;;;;;;;105.13;35.13;;;;;;;;;;5041215;28;20053;-58
2021/03/04 07:38:22;;;;;;;95.70;29.30;;;;;;;;;;5050879;28;20319;-59
2021/03/04 07:40:57;;;;;;;81.95;28.10;;;;;;;;;;5050285;28;20041;-58
2021/03/04 07:43:23;;;;;;;86.75;28.83;;;;;;;;;;5057052;28;20033;-59
2021/03/04 07:45:48;;;;;;;82.47;27.93;;;;;;;;;;5052960;28;20029;-58
2021/03/04 07:48:16;;;;;;;78.70;27.00;;;;;;;;;;5068867;28;20552;-58
2021/03/04 07:50:42;;;;;;;82.35;27.48;;;;;;;;;;5069379;28;20036;-58
2021/03/04 07:53:07;;;;;;;83.97;30.80;;;;;;;;;;5070809;28;20040;-59
2021/03/04 07:55:38;;;;;;;93.77;29.40;;;;;;;;;;5069883;28;20028;-58
2021/03/04 07:58:13;;;;;;;84.20;28.52;;;;;;;;;;5069384;28;20025;-58
2021/03/04 08:00:39;;;;;;;84.18;28.00;;;;;;;;;;5069017;28;20027;-59
2021/03/04 08:03:04;;;;;;;83.40;28.10;;;;;;;;;;5069058;28;20028;-58
2021/03/04 08:05:33;;;;;;;73.90;25.33;;;;;;;;;;5066618;28;20036;-57
2021/03/04 08:08:09;;;;;;;77.88;26.13;;;;;;;;;;5070672;28;20048;-58
2021/03/04 08:10:41;;;;;;;69.57;24.13;;;;;;;;;;5073313;28;20054;-58
2021/03/04 08:13:07;;;;;;;75.28;24.80;;;;;;;;;;5073451;28;20129;-57
2021/03/04 08:15:34;;;;;;;56.00;19.63;;;;;;;;;;5072935;28;20059;-58
2021/03/04 08:18:00;;;;;;;78.40;24.27;;;;;;;;;;5073029;28;20443;-58
2021/03/04 08:20:26;;;;;;;78.95;23.48;;;;;;;;;;5073593;28;20087;-57
2021/03/04 08:22:52;;;;;;;69.37;24.67;;;;;;;;;;5071991;28;20053;-58
2021/03/04 08:25:18;;;;;;;73.82;23.60;;;;;;;;;;5073812;28;20131;-58
2021/03/04 08:27:44;;;;;;;71.95;23.20;;;;;;;;;;5072900;28;20099;-59
2021/03/04 08:30:09;;;;;;;80.43;26.47;;;;;;;;;;5073617;28;20116;-57
2021/03/04 08:32:36;;;;;;;70.83;24.23;;;;;;;;;;5070889;28;20031;-58
2021/03/04 08:35:02;;;;;;;76.75;24.00;;;;;;;;;;5073356;28;20273;-58
2021/03/04 08:37:29;;;;;;;82.63;27.58;;;;;;;;;;5073192;28;20035;-57
2021/03/04 08:40:00;;;;;;;78.30;25.15;;;;;;;;;;5072262;28;20553;-58
2021/03/04 08:42:25;;;;;;;88.70;26.90;;;;;;;;;;5073167;28;20115;-58
2021/03/04 08:44:51;;;;;;;79.17;25.37;;;;;;;;;;5072616;28;20330;-58
2021/03/04 08:47:16;;;;;;;77.47;25.10;;;;;;;;;;5073055;28;20041;-58
2021/03/04 08:49:52;;;;;;;90.47;27.35;;;;;;;;;;5072841;28;20142;-58
2021/03/04 08:52:22;;;;;;;87.38;25.38;;;;;;;;;;5074068;28;20085;-58
2021/03/04 08:54:48;;;;;;;83.00;26.85;;;;;;;;;;5054488;28;20047;-57
2021/03/04 08:57:20;;;;;;;77.38;24.98;;;;;;;;;;5073217;28;20317;-58
2021/03/04 08:59:45;;;;;;;80.03;25.08;;;;;;;;;;5072372;28;20036;-58
2021/03/04 09:02:14;;;;;;;80.77;24.47;;;;;;;;;;5072684;28;20085;-57
2021/03/04 09:04:39;;;;;;;86.95;28.58;;;;;;;;;;5054264;28;20043;-58
2021/03/04 09:07:05;;;;;;;85.80;27.80;;;;;;;;;;5072671;28;20432;-58
2021/03/04 09:09:30;;;;;;;91.70;27.13;;;;;;;;;;5054775;28;20033;-59
2021/03/04 09:11:59;;;;;;;90.90;27.50;;;;;;;;;;5072097;28;20040;-57
2021/03/04 09:14:25;;;;;;;80.40;26.05;;;;;;;;;;5072645;28;20028;-58
2021/03/04 09:16:50;;;;;;;86.50;27.13;;;;;;;;;;5071679;28;20025;-58
2021/03/04 09:19:25;;;;;;;52.87;18.83;;;;;;;;;;5072688;28;20036;-58
2021/03/04 09:21:51;;;;;;;62.72;24.15;;;;;;;;;;5072139;28;20254;-58
2021/03/04 09:24:16;;;;;;;47.03;18.30;;;;;;;;;;5072518;28;20039;-59
2021/03/04 09:26:42;;;;;;;58.07;19.17;;;;;;;;;;5053707;28;20025;-58
2021/03/04 09:29:07;;;;;;;57.57;21.13;;;;;;;;;;5054371;28;20452;-59
2021/03/04 09:31:33;;;;;;;61.70;22.70;;;;;;;;;;5071928;28;20041;-59
2021/03/04 09:33:59;;;;;;;57.47;22.70;;;;;;;;;;5053713;28;20063;-59
2021/03/04 09:36:25;;;;;;;53.67;19.88;;;;;;;;;;5067034;28;20056;-59
2021/03/04 09:38:53;;;;;;;61.28;20.67;;;;;;;;;;5071851;28;20043;-59
2021/03/04 09:41:19;;;;;;;54.17;20.38;;;;;;;;;;5070841;28;20029;-58
2021/03/04 09:43:49;;;;;;;63.75;22.48;;;;;;;;;;5069858;28;20051;-58
2021/03/04 09:46:34;;;;;;;53.10;20.80;;;;;;;;;;5070672;28;20033;-58
2021/03/04 09:49:13;;;;;;;58.75;21.70;;;;;;;;;;5071881;28;20464;-58
2021/03/04 09:51:39;;;;;;;55.58;19.73;;;;;;;;;;5053897;28;20543;-57
2021/03/04 09:54:05;;;;;;;54.13;20.88;;;;;;;;;;5072319;28;20037;-58
2021/03/04 09:56:31;;;;;;;53.95;21.92;;;;;;;;;;5074873;28;20055;-58
2021/03/04 09:58:57;;;;;;;49.13;19.95;;;;;;;;;;5071924;28;20037;-60
2021/03/04 10:01:26;;;;;;;53.75;19.98;;;;;;;;;;5072955;28;20025;-58
2021/03/04 10:03:58;;;;;;;52.13;20.15;;;;;;;;;;5072353;28;20060;-58
2021/03/04 10:06:23;;;;;;;47.72;19.00;;;;;;;;;;5073123;28;20417;-63
2021/03/04 10:08:53;;;;;;;51.40;19.30;;;;;;;;;;5073002;28;20517;-58
2021/03/04 10:11:22;;;;;;;50.58;19.77;;;;;;;;;;5072353;28;20021;-58
2021/03/04 10:13:48;;;;;;;46.70;18.80;;;;;;;;;;5071466;28;20047;-58
2021/03/04 10:16:14;;;;;;;43.40;18.30;;;;;;;;;;5071903;28;20446;-58
2021/03/04 10:18:46;;;;;;;47.58;18.95;;;;;;;;;;5069807;28;20032;-57
2021/03/04 10:21:13;;;;;;;49.13;19.02;;;;;;;;;;5070533;28;20047;-58
2021/03/04 10:23:38;;;;;;;42.08;18.13;;;;;;;;;;5071193;28;20035;-58
2021/03/04 10:26:03;;;;;;;49.60;18.73;;;;;;;;;;5070251;28;20027;-58
2021/03/04 10:28:29;;;;;;;48.50;18.47;;;;;;;;;;5071469;28;20036;-58
2021/03/04 10:30:55;;;;;;;48.05;17.77;;;;;;;;;;5068630;28;20086;-58
2021/03/04 10:33:20;;;;;;;41.90;17.10;;;;;;;;;;5071086;28;20040;-58
2021/03/04 10:35:45;;;;;;;42.60;16.43;;;;;;;;;;5070934;28;20097;-58
2021/03/04 10:38:11;;;;;;;41.73;14.77;;;;;;;;;;5071854;28;20456;-57
2021/03/04 10:40:36;;;;;;;41.33;16.60;;;;;;;;;;5071619;28;20036;-58
2021/03/04 10:43:01;;;;;;;40.97;15.17;;;;;;;;;;5070886;28;20035;-58
2021/03/04 10:45:27;;;;;;;38.73;15.57;;;;;;;;;;5071468;28;20048;-58
2021/03/04 10:47:52;;;;;;;43.57;16.93;;;;;;;;;;5053129;28;20122;-58
2021/03/04 10:50:21;;;;;;;43.57;17.43;;;;;;;;;;5071438;28;20021;-58
2021/03/04 10:52:47;;;;;;;46.63;17.02;;;;;;;;;;5069935;28;20059;-58
2021/03/04 10:55:12;;;;;;;48.97;17.47;;;;;;;;;;5071418;28;20469;-59
2021/03/04 10:57:38;;;;;;;49.33;17.73;;;;;;;;;;5069117;28;20040;-58
2021/03/04 11:00:04;;;;;;;;;;;;;;;;;;5071444;28;20048;-59
2021/03/04 11:02:29;;;;;;;45.97;17.63;;;;;;;;;;5054479;28;19908;-59
2021/03/04 11:04:55;;;;;;;46.90;16.27;;;;;;;;;;5054333;28;20112;-58
2021/03/04 11:07:21;;;;;;;30.27;12.98;;;;;;;;;;5071691;28;20028;-58
2021/03/04 11:09:46;;;;;;;40.00;13.67;;;;;;;;;;5052420;28;20107;-59
2021/03/04 11:12:12;;;;;;;30.77;12.88;;;;;;;;;;5070523;28;20063;-59
2021/03/04 11:14:38;;;;;;;35.77;14.60;;;;;;;;;;5070162;28;20029;-59
2021/03/04 11:17:04;;;;;;;32.92;14.05;;;;;;;;;;5052560;28;20024;-58
2021/03/04 11:19:31;;;;;;;38.47;15.30;;;;;;;;;;5053325;28;20108;-59
2021/03/04 11:21:56;;;;;;;30.60;12.70;;;;;;;;;;5069971;28;20045;-59
2021/03/04 11:24:21;;;;;;;38.60;14.47;;;;;;;;;;5037119;28;20052;-60
2021/03/04 11:26:47;;;;;;;30.07;10.93;;;;;;;;;;5070138;28;20362;-59
2021/03/04 11:29:12;;;;;;;39.37;13.67;;;;;;;;;;5071078;28;20035;-59
2021/03/04 11:31:38;;;;;;;33.30;12.90;;;;;;;;;;5071440;28;20035;-58
2021/03/04 11:34:04;;;;;;;32.93;13.50;;;;;;;;;;5070218;28;20029;-58
2021/03/04 11:36:30;;;;;;;35.35;12.82;;;;;;;;;;5071757;28;20305;-59
2021/03/04 11:38:56;;;;;;;34.25;12.63;;;;;;;;;;5070914;28;20101;-58
2021/03/04 11:41:21;;;;;;;34.40;13.00;;;;;;;;;;5052985;28;20108;-60
2021/03/04 11:43:47;;;;;;;27.17;10.30;;;;;;;;;;5073406;28;20045;-59
2021/03/04 11:46:12;;;;;;;26.90;10.20;;;;;;;;;;5040049;28;20528;-60
2021/03/04 11:48:38;;;;;;;21.05;8.88;;;;;;;;;;5074400;28;20033;-59
2021/03/04 11:51:04;;;;;;;19.70;7.78;;;;;;;;;;5074379;28;20470;-58
2021/03/04 11:53:29;;;;;;;22.53;7.53;;;;;;;;;;5074719;28;20028;-59
2021/03/04 11:55:54;;;;;;;16.57;7.37;;;;;;;;;;5055881;28;20033;-59
2021/03/04 11:58:20;;;;;;;18.57;7.00;;;;;;;;;;5074727;28;20029;-59
2021/03/04 12:00:45;;;;;;;20.37;7.10;;;;;;;;;;5074427;28;20024;-61
2021/03/04 12:03:10;;;;;;;19.70;7.60;;;;;;;;;;5074025;28;20035;-59
2021/03/04 12:05:36;;;;;;;15.33;7.23;;;;;;;;;;5074190;28;20049;-59
2021/03/04 12:08:01;;;;;;;14.97;6.03;;;;;;;;;;5073698;28;20037;-59
2021/03/04 12:10:27;;;;;;;12.30;6.17;;;;;;;;;;5073542;28;20092;-59
2021/03/04 12:12:52;;;;;;;16.10;6.70;;;;;;;;;;5055505;28;20037;-59
2021/03/04 12:15:17;;;;;;;13.80;6.97;;;;;;;;;;5073590;28;20032;-59
2021/03/04 12:17:44;;;;;;;18.50;5.70;;;;;;;;;;5072568;28;20040;-58
2021/03/04 12:20:09;;;;;;;13.75;6.28;;;;;;;;;;5054221;28;20079;-59
2021/03/04 12:22:34;;;;;;;16.53;5.87;;;;;;;;;;5036321;28;20041;-58
2021/03/04 12:25:00;;;;;;;11.17;5.30;;;;;;;;;;5034838;28;20397;-58
2021/03/04 12:27:25;;;;;;;12.50;5.73;;;;;;;;;;5035695;28;20056;-59
2021/03/04 12:29:50;;;;;;;11.47;5.43;;;;;;;;;;5037078;28;20453;-58
2021/03/04 12:32:16;;;;;;;12.50;4.70;;;;;;;;;;5054314;28;20037;-59
2021/03/04 12:34:42;;;;;;;12.80;5.97;;;;;;;;;;5053746;28;20040;-59
2021/03/04 12:37:08;;;;;;;8.98;4.60;;;;;;;;;;5052515;28;20040;-59
2021/03/04 12:39:33;;;;;;;13.97;5.63;;;;;;;;;;5053223;28;20090;-62
2021/03/04 12:41:58;;;;;;;17.47;6.67;;;;;;;;;;5052561;28;20108;-59
2021/03/04 12:44:23;;;;;;;17.23;6.60;;;;;;;;;;5053392;28;20052;-59
2021/03/04 12:46:49;;;;;;;11.23;5.17;;;;;;;;;;5063269;28;20480;-59
2021/03/04 12:49:14;;;;;;;9.93;4.40;;;;;;;;;;5072903;28;20040;-59
2021/03/04 12:51:39;;;;;;;11.20;5.17;;;;;;;;;;5073441;28;20028;-59
2021/03/04 12:54:05;;;;;;;10.83;4.47;;;;;;;;;;5070301;28;20039;-60
2021/03/04 12:56:30;;;;;;;8.10;3.93;;;;;;;;;;5072016;28;20040;-58
2021/03/04 12:58:56;;;;;;;9.97;4.87;;;;;;;;;;5072059;28;20068;-60
2021/03/04 13:01:21;;;;;;;8.77;4.07;;;;;;;;;;5071883;28;20017;-60
2021/03/04 13:03:46;;;;;;;12.20;5.27;;;;;;;;;;5071673;28;20068;-59
2021/03/04 13:06:12;;;;;;;7.97;3.67;;;;;;;;;;5070679;28;20064;-58
2021/03/04 13:08:37;;;;;;;15.80;4.90;;;;;;;;;;5071845;28;20036;-59
2021/03/04 13:11:02;;;;;;;9.60;4.40;;;;;;;;;;5071697;28;20112;-59
2021/03/04 13:13:28;;;;;;;8.00;4.00;;;;;;;;;;5072299;28;20329;-59
2021/03/04 13:15:53;;;;;;;14.03;5.80;;;;;;;;;;5070119;28;20082;-59
2021/03/04 13:18:18;;;;;;;9.33;4.93;;;;;;;;;;5073086;28;20028;-59
2021/03/04 13:20:44;;;;;;;9.47;4.70;;;;;;;;;;5071891;28;20499;-59
2021/03/04 13:23:09;;;;;;;14.70;5.70;;;;;;;;;;5071484;28;20460;-59
2021/03/04 13:25:35;;;;;;;13.00;5.13;;;;;;;;;;5072294;28;20548;-59
2021/03/04 13:28:00;;;;;;;10.27;4.33;;;;;;;;;;5071537;28;20016;-58
2021/03/04 13:30:26;;;;;;;10.43;4.83;;;;;;;;;;5071824;28;20421;-57
2021/03/04 13:32:51;;;;;;;12.17;5.77;;;;;;;;;;5071923;28;20056;-58
2021/03/04 13:35:17;;;;;;;9.53;5.20;;;;;;;;;;5070645;28;20381;-58
2021/03/04 13:37:42;;;;;;;12.60;5.17;;;;;;;;;;5071961;28;20349;-58
2021/03/04 13:40:08;;;;;;;10.63;4.63;;;;;;;;;;5070394;28;20041;-58
2021/03/04 13:42:33;;;;;;;10.35;5.05;;;;;;;;;;5072359;28;20041;-58
2021/03/04 13:44:59;;;;;;;10.20;4.83;;;;;;;;;;5071101;28;20152;-58
2021/03/04 13:47:24;;;;;;;11.90;4.97;;;;;;;;;;5072217;28;20269;-58
2021/03/04 13:49:49;;;;;;;10.80;4.97;;;;;;;;;;5053401;28;20048;-58
2021/03/04 13:52:15;;;;;;;10.00;4.97;;;;;;;;;;5071856;28;20043;-58
2021/03/04 13:54:40;;;;;;;8.47;4.83;;;;;;;;;;5071650;28;20119;-59
2021/03/04 13:57:05;;;;;;;9.33;4.63;;;;;;;;;;5071123;28;20161;-58
2021/03/04 13:59:31;;;;;;;8.60;4.30;;;;;;;;;;5071474;28;20040;-59
2021/03/04 14:01:56;;;;;;;10.63;4.40;;;;;;;;;;5071001;28;20033;-58
2021/03/04 14:04:21;;;;;;;10.20;4.77;;;;;;;;;;5071626;28;20476;-58
2021/03/04 14:06:47;;;;;;;18.53;6.23;;;;;;;;;;5071802;28;20040;-58
2021/03/04 14:09:13;;;;;;;11.77;4.78;;;;;;;;;;5071132;28;20021;-58
2021/03/04 14:11:38;;;;;;;12.70;5.30;;;;;;;;;;5071784;28;20028;-58
2021/03/04 14:14:03;;;;;;;8.87;5.00;;;;;;;;;;5070713;28;20051;-58